createdAt,value
2018-05-23T00:00:18.182Z,1018.06
2018-05-23T00:01:27.325Z,1018.11
2018-05-23T00:02:36.293Z,1018.11
2018-05-23T00:03:45.153Z,1018.1
2018-05-23T00:04:54.021Z,1018.11
2018-05-23T00:06:03.174Z,1018.12
2018-05-23T00:07:12.039Z,1018.12
2018-05-23T00:08:20.902Z,1018.12
2018-05-23T00:09:30.610Z,1018.16
2018-05-23T00:10:39.471Z,1018.15
2018-05-23T00:11:48.332Z,1018.11
2018-05-23T00:12:57.198Z,1018.13
2018-05-23T00:14:06.160Z,1018.16
2018-05-23T00:15:15.024Z,1018.16
2018-05-23T00:16:24.445Z,1018.17
2018-05-23T00:17:33.582Z,1018.15
2018-05-23T00:18:42.443Z,1018.18
2018-05-23T00:19:51.456Z,1018.18
2018-05-23T00:21:00.326Z,1018.21
2018-05-23T00:22:09.184Z,1018.25
2018-05-23T00:23:18.332Z,1018.24
2018-05-23T00:24:27.191Z,1018.34
2018-05-23T00:25:36.102Z,1018.36
2018-05-23T00:26:44.966Z,1018.37
2018-05-23T00:27:53.881Z,1018.35
2018-05-23T00:29:02.746Z,1018.36
2018-05-23T00:30:11.607Z,1018.4
2018-05-23T00:31:20.518Z,1018.38
2018-05-23T00:32:29.381Z,1018.4
2018-05-23T00:33:38.248Z,1018.38
2018-05-23T00:34:47.106Z,1018.38
2018-05-23T00:35:55.971Z,1018.37
2018-05-23T00:37:04.832Z,1018.38
2018-05-23T00:38:13.692Z,1018.4
2018-05-23T00:39:22.553Z,1018.4
2018-05-23T00:40:31.417Z,1018.37
2018-05-23T00:41:40.285Z,1018.43
2018-05-23T00:42:49.494Z,1018.35
2018-05-23T00:43:58.355Z,1018.38
2018-05-23T00:45:07.219Z,1018.35
2018-05-23T00:46:16.081Z,1018.36
2018-05-23T00:47:25.220Z,1018.39
2018-05-23T00:48:34.362Z,1018.36
2018-05-23T00:49:43.226Z,1018.41
2018-05-23T00:50:52.364Z,1018.38
2018-05-23T00:52:01.226Z,1018.36
2018-05-23T00:53:10.088Z,1018.41
2018-05-23T00:54:19.227Z,1018.39
2018-05-23T00:55:28.095Z,1018.44
2018-05-23T00:56:36.952Z,1018.47
2018-05-23T00:57:45.814Z,1018.47
2018-05-23T00:58:54.965Z,1018.44
2018-05-23T01:00:04.196Z,1018.43
2018-05-23T01:01:13.059Z,1018.44
2018-05-23T01:02:21.921Z,1018.44
2018-05-23T01:03:31.066Z,1018.42
2018-05-23T01:04:40.284Z,1018.48
2018-05-23T01:05:49.497Z,1018.48
2018-05-23T01:06:58.357Z,1018.53
2018-05-23T01:08:07.225Z,1018.54
2018-05-23T01:09:16.368Z,1018.53
2018-05-23T01:10:25.504Z,1018.52
2018-05-23T01:11:34.718Z,1018.54
2018-05-23T01:12:43.585Z,1018.5
2018-05-23T01:13:52.444Z,1018.49
2018-05-23T01:15:01.307Z,1018.51
2018-05-23T01:16:10.169Z,1018.51
2018-05-23T01:17:19.179Z,1018.5
2018-05-23T01:18:28.040Z,1018.52
2018-05-23T01:19:36.905Z,1018.57
2018-05-23T01:20:46.047Z,1018.58
2018-05-23T01:21:54.908Z,1018.57
2018-05-23T01:23:03.919Z,1018.61
2018-05-23T01:24:12.786Z,1018.63
2018-05-23T01:25:21.640Z,1018.57
2018-05-23T01:26:30.796Z,1018.57
2018-05-23T01:27:39.660Z,1018.62
2018-05-23T01:28:48.855Z,1018.56
2018-05-23T01:29:57.997Z,1018.58
2018-05-23T01:31:06.860Z,1018.58
2018-05-23T01:32:15.722Z,1018.61
2018-05-23T01:33:24.583Z,1018.59
2018-05-23T01:34:33.594Z,1018.59
2018-05-23T01:35:42.456Z,1018.58
2018-05-23T01:36:51.594Z,1018.63
2018-05-23T01:38:00.458Z,1018.6
2018-05-23T01:39:09.320Z,1018.6
2018-05-23T01:40:18.399Z,1018.64
2018-05-23T01:41:27.539Z,1018.63
2018-05-23T01:42:37.245Z,1018.63
2018-05-23T01:43:46.109Z,1018.65
2018-05-23T01:44:54.971Z,1018.58
2018-05-23T01:46:04.262Z,1018.65
2018-05-23T01:47:13.122Z,1018.62
2018-05-23T01:48:21.983Z,1018.63
2018-05-23T01:49:31.122Z,1018.62
2018-05-23T01:50:40.537Z,1018.67
2018-05-23T01:51:49.555Z,1018.66
2018-05-23T01:52:58.698Z,1018.7
2018-05-23T01:54:07.560Z,1018.73
2018-05-23T01:55:16.710Z,1018.77
2018-05-23T01:56:25.850Z,1018.77
2018-05-23T01:57:35.059Z,1018.76
2018-05-23T01:58:43.923Z,1018.75
2018-05-23T01:59:52.784Z,1018.73
2018-05-23T02:01:01.646Z,1018.77
2018-05-23T02:02:10.507Z,1018.75
2018-05-23T02:03:19.372Z,1018.77
2018-05-23T02:04:28.234Z,1018.75
2018-05-23T02:05:37.379Z,1018.79
2018-05-23T02:06:46.238Z,1018.82
2018-05-23T02:07:55.104Z,1018.8
2018-05-23T02:09:03.966Z,1018.79
2018-05-23T02:10:13.106Z,1018.81
2018-05-23T02:11:21.967Z,1018.8
2018-05-23T02:12:31.128Z,1018.83
2018-05-23T02:13:39.987Z,1018.78
2018-05-23T02:14:48.848Z,1018.88
2018-05-23T02:15:57.712Z,1018.88
2018-05-23T02:17:06.570Z,1018.91
2018-05-23T02:18:15.711Z,1018.91
2018-05-23T02:19:24.572Z,1018.93
2018-05-23T02:20:33.484Z,1018.91
2018-05-23T02:21:42.351Z,1018.94
2018-05-23T02:22:51.212Z,1018.93
2018-05-23T02:24:00.353Z,1018.9
2018-05-23T02:25:09.217Z,1018.94
2018-05-23T02:26:18.314Z,1018.93
2018-05-23T02:27:27.175Z,1018.91
2018-05-23T02:28:36.107Z,1018.95
2018-05-23T02:29:45.255Z,1018.96
2018-05-23T02:30:54.118Z,1018.91
2018-05-23T02:32:02.987Z,1018.97
2018-05-23T02:33:12.684Z,1018.9
2018-05-23T02:34:21.547Z,1018.89
2018-05-23T02:35:30.973Z,1018.89
2018-05-23T02:36:40.120Z,1018.89
2018-05-23T02:37:49.642Z,1018.92
2018-05-23T02:38:58.609Z,1018.89
2018-05-23T02:40:08.034Z,1018.88
2018-05-23T02:41:17.181Z,1018.92
2018-05-23T02:42:26.601Z,1018.91
2018-05-23T02:43:35.848Z,1018.95
2018-05-23T02:44:44.710Z,1018.98
2018-05-23T02:45:53.860Z,1018.96
2018-05-23T02:47:03.357Z,1018.98
2018-05-23T02:48:12.601Z,1019.01
2018-05-23T02:49:21.842Z,1019.03
2018-05-23T02:50:30.711Z,1019.04
2018-05-23T02:51:39.841Z,1019.01
2018-05-23T02:52:48.703Z,1019
2018-05-23T02:53:57.856Z,1019.06
2018-05-23T02:55:07.546Z,1019.02
2018-05-23T02:56:16.413Z,1019.08
2018-05-23T02:57:25.548Z,1019.07
2018-05-23T02:58:34.412Z,1019.09
2018-05-23T02:59:43.553Z,1019.11
2018-05-23T03:00:52.416Z,1019.11
2018-05-23T03:02:01.569Z,1019.14
2018-05-23T03:03:11.264Z,1019.15
2018-05-23T03:04:20.134Z,1019.17
2018-05-23T03:05:29.558Z,1019.18
2018-05-23T03:06:38.940Z,1019.19
2018-05-23T03:07:48.080Z,1019.15
2018-05-23T03:08:56.943Z,1019.22
2018-05-23T03:10:05.804Z,1019.23
2018-05-23T03:11:14.667Z,1019.25
2018-05-23T03:12:23.679Z,1019.29
2018-05-23T03:13:32.539Z,1019.27
2018-05-23T03:14:41.400Z,1019.29
2018-05-23T03:15:50.262Z,1019.31
2018-05-23T03:16:59.400Z,1019.3
2018-05-23T03:18:08.466Z,1019.34
2018-05-23T03:19:17.320Z,1019.35
2018-05-23T03:20:26.459Z,1019.4
2018-05-23T03:21:35.321Z,1019.36
2018-05-23T03:22:44.181Z,1019.35
2018-05-23T03:23:53.141Z,1019.4
2018-05-23T03:25:02.283Z,1019.41
2018-05-23T03:26:11.148Z,1019.44
2018-05-23T03:27:20.011Z,1019.41
2018-05-23T03:28:28.871Z,1019.42
2018-05-23T03:29:37.834Z,1019.44
2018-05-23T03:30:46.697Z,1019.48
2018-05-23T03:31:55.574Z,1019.46
2018-05-23T03:33:04.993Z,1019.42
2018-05-23T03:34:13.854Z,1019.41
2018-05-23T03:35:23.066Z,1019.42
2018-05-23T03:36:31.925Z,1019.42
2018-05-23T03:37:41.070Z,1019.44
2018-05-23T03:38:49.939Z,1019.47
2018-05-23T03:39:58.799Z,1019.46
2018-05-23T03:41:07.666Z,1019.48
2018-05-23T03:42:16.802Z,1019.52
2018-05-23T03:43:26.220Z,1019.51
2018-05-23T03:44:35.085Z,1019.53
2018-05-23T03:45:43.942Z,1019.52
2018-05-23T03:46:52.951Z,1019.58
2018-05-23T03:48:02.381Z,1019.61
2018-05-23T03:49:11.518Z,1019.6
2018-05-23T03:50:20.379Z,1019.61
2018-05-23T03:51:29.240Z,1019.65
2018-05-23T03:52:38.252Z,1019.72
2018-05-23T03:53:47.113Z,1019.64
2018-05-23T03:54:56.538Z,1019.67
2018-05-23T03:56:05.404Z,1019.67
2018-05-23T03:57:14.548Z,1019.68
2018-05-23T03:58:23.508Z,1019.7
2018-05-23T03:59:32.366Z,1019.72
2018-05-23T04:00:41.232Z,1019.72
2018-05-23T04:01:50.088Z,1019.75
2018-05-23T04:02:58.949Z,1019.72
2018-05-23T04:04:07.966Z,1019.74
2018-05-23T04:05:16.827Z,1019.78
2018-05-23T04:06:25.690Z,1019.8
2018-05-23T04:07:34.553Z,1019.78
2018-05-23T04:08:43.421Z,1019.77
2018-05-23T04:09:52.429Z,1019.79
2018-05-23T04:11:01.587Z,1019.83
2018-05-23T04:12:10.446Z,1019.85
2018-05-23T04:13:19.310Z,1019.84
2018-05-23T04:14:28.451Z,1019.87
2018-05-23T04:15:37.722Z,1019.87
2018-05-23T04:16:46.861Z,1019.88
2018-05-23T04:17:55.724Z,1019.89
2018-05-23T04:19:04.865Z,1019.9
2018-05-23T04:20:13.727Z,1019.89
2018-05-23T04:21:22.587Z,1019.93
2018-05-23T04:22:31.450Z,1019.93
2018-05-23T04:23:40.315Z,1019.98
2018-05-23T04:24:49.311Z,1019.96
2018-05-23T04:25:58.464Z,1020.06
2018-05-23T04:27:07.476Z,1020.01
2018-05-23T04:28:16.336Z,1020.07
2018-05-23T04:29:25.207Z,1020.05
2018-05-23T04:30:34.061Z,1020.09
2018-05-23T04:31:43.203Z,1020.13
2018-05-23T04:32:52.114Z,1020.09
2018-05-23T04:34:00.976Z,1020.12
2018-05-23T04:35:09.838Z,1020.12
2018-05-23T04:36:18.709Z,1020.1
2018-05-23T04:37:27.572Z,1020.15
2018-05-23T04:38:36.781Z,1020.14
2018-05-23T04:39:45.922Z,1020.11
2018-05-23T04:40:54.788Z,1020.13
2018-05-23T04:42:03.652Z,1020.13
2018-05-23T04:43:12.789Z,1020.18
2018-05-23T04:44:21.704Z,1020.2
2018-05-23T04:45:30.561Z,1020.2
2018-05-23T04:46:39.421Z,1020.2
2018-05-23T04:47:48.290Z,1020.26
2018-05-23T04:48:57.426Z,1020.22
2018-05-23T04:50:07.192Z,1020.23
2018-05-23T04:51:16.331Z,1020.28
2018-05-23T04:52:25.473Z,1020.29
2018-05-23T04:53:34.334Z,1020.31
2018-05-23T04:54:43.481Z,1020.31
2018-05-23T04:55:52.491Z,1020.32
2018-05-23T04:57:01.354Z,1020.32
2018-05-23T04:58:10.236Z,1020.35
2018-05-23T04:59:19.079Z,1020.4
2018-05-23T05:00:28.220Z,1020.37
2018-05-23T05:01:37.417Z,1020.41
2018-05-23T05:02:46.279Z,1020.41
2018-05-23T05:03:55.141Z,1020.46
2018-05-23T05:05:04.005Z,1020.46
2018-05-23T05:06:12.866Z,1020.49
2018-05-23T05:07:21.830Z,1020.51
2018-05-23T05:08:30.688Z,1020.49
2018-05-23T05:09:39.553Z,1020.51
2018-05-23T05:10:48.976Z,1020.53
2018-05-23T05:11:57.842Z,1020.55
2018-05-23T05:13:06.707Z,1020.51
2018-05-23T05:14:15.568Z,1020.56
2018-05-23T05:15:24.427Z,1020.54
2018-05-23T05:16:33.575Z,1020.61
2018-05-23T05:17:42.437Z,1020.59
2018-05-23T05:18:51.642Z,1020.6
2018-05-23T05:20:00.497Z,1020.6
2018-05-23T05:21:09.359Z,1020.68
2018-05-23T05:22:18.221Z,1020.66
2018-05-23T05:23:27.085Z,1020.63
2018-05-23T05:24:36.413Z,1020.68
2018-05-23T05:25:45.557Z,1020.69
2018-05-23T05:26:54.696Z,1020.69
2018-05-23T05:28:03.561Z,1020.73
2018-05-23T05:29:12.428Z,1020.76
2018-05-23T05:30:21.341Z,1020.75
2018-05-23T05:31:30.203Z,1020.8
2018-05-23T05:32:39.068Z,1020.78
2018-05-23T05:33:47.934Z,1020.81
2018-05-23T05:34:56.896Z,1020.83
2018-05-23T05:36:05.915Z,1020.85
2018-05-23T05:37:14.773Z,1020.87
2018-05-23T05:38:23.646Z,1020.88
2018-05-23T05:39:32.505Z,1020.94
2018-05-23T05:40:41.366Z,1020.93
2018-05-23T05:41:50.502Z,1020.93
2018-05-23T05:42:59.364Z,1020.91
2018-05-23T05:44:08.507Z,1020.98
2018-05-23T05:45:17.647Z,1020.95
2018-05-23T05:46:26.508Z,1020.96
2018-05-23T05:47:35.723Z,1020.96
2018-05-23T05:48:44.584Z,1020.99
2018-05-23T05:49:53.467Z,1020.98
2018-05-23T05:51:02.898Z,1020.99
2018-05-23T05:52:11.760Z,1021.01
2018-05-23T05:53:21.968Z,1021
2018-05-23T05:54:32.274Z,1021
2018-05-23T05:55:42.405Z,1021.09
2018-05-23T05:56:51.698Z,1021.1
2018-05-23T05:58:01.721Z,1021.14
2018-05-23T05:59:11.799Z,1021.1
2018-05-23T06:00:21.724Z,1021.11
2018-05-23T06:01:31.258Z,1021.16
2018-05-23T06:02:41.165Z,1021.18
2018-05-23T06:03:50.354Z,1021.15
2018-05-23T06:04:59.578Z,1021.18
2018-05-23T06:06:08.979Z,1021.22
2018-05-23T06:07:18.524Z,1021.26
2018-05-23T06:08:28.063Z,1021.27
2018-05-23T06:09:38.270Z,1021.27
2018-05-23T06:10:47.550Z,1021.31
2018-05-23T06:11:56.881Z,1021.35
2018-05-23T06:13:06.299Z,1021.34
2018-05-23T06:14:15.554Z,1021.37
2018-05-23T06:15:25.129Z,1021.38
2018-05-23T06:16:35.381Z,1021.37
2018-05-23T06:17:44.597Z,1021.39
2018-05-23T06:18:54.065Z,1021.4
2018-05-23T06:20:03.769Z,1021.42
2018-05-23T06:21:12.904Z,1021.4
2018-05-23T06:22:22.385Z,1021.46
2018-05-23T06:23:32.327Z,1021.48
2018-05-23T06:24:41.191Z,1021.5
2018-05-23T06:25:50.055Z,1021.5
2018-05-23T06:26:58.918Z,1021.45
2018-05-23T06:28:08.033Z,1021.48
2018-05-23T06:29:16.902Z,1021.49
2018-05-23T06:30:26.390Z,1021.47
2018-05-23T06:31:35.905Z,1021.49
2018-05-23T06:32:44.891Z,1021.48
2018-05-23T06:33:54.273Z,1021.53
2018-05-23T06:35:03.140Z,1021.52
2018-05-23T06:36:12.003Z,1021.53
2018-05-23T06:37:20.873Z,1021.51
2018-05-23T06:38:29.730Z,1021.58
2018-05-23T06:39:38.845Z,1021.54
2018-05-23T06:40:47.714Z,1021.49
2018-05-23T06:41:56.576Z,1021.56
2018-05-23T06:43:05.443Z,1021.59
2018-05-23T06:44:14.321Z,1021.58
2018-05-23T06:45:23.813Z,1021.58
2018-05-23T06:46:32.676Z,1021.57
2018-05-23T06:47:41.546Z,1021.63
2018-05-23T06:48:50.684Z,1021.68
2018-05-23T06:49:59.566Z,1021.65
2018-05-23T06:51:08.898Z,1021.65
2018-05-23T06:52:17.763Z,1021.7
2018-05-23T06:53:26.626Z,1021.74
2018-05-23T06:54:35.489Z,1021.73
2018-05-23T06:55:44.388Z,1021.75
2018-05-23T06:56:53.807Z,1021.78
2018-05-23T06:58:02.642Z,1021.81
2018-05-23T06:59:11.503Z,1021.76
2018-05-23T07:00:20.370Z,1021.78
2018-05-23T07:01:29.236Z,1021.8
2018-05-23T07:02:38.254Z,1021.77
2018-05-23T07:03:47.116Z,1021.81
2018-05-23T07:04:55.985Z,1021.88
2018-05-23T07:06:05.128Z,1021.85
2018-05-23T07:07:13.992Z,1021.85
2018-05-23T07:08:23.288Z,1021.86
2018-05-23T07:09:32.428Z,1021.83
2018-05-23T07:10:41.293Z,1021.83
2018-05-23T07:11:50.157Z,1021.84
2018-05-23T07:12:59.028Z,1021.82
2018-05-23T07:14:08.212Z,1021.82
2018-05-23T07:15:17.076Z,1021.87
2018-05-23T07:16:25.939Z,1021.91
2018-05-23T07:17:35.434Z,1021.91
2018-05-23T07:18:44.574Z,1021.91
2018-05-23T07:19:53.436Z,1021.93
2018-05-23T07:21:02.302Z,1021.94
2018-05-23T07:22:11.163Z,1021.94
2018-05-23T07:23:20.303Z,1021.96
2018-05-23T07:24:29.167Z,1021.98
2018-05-23T07:25:38.650Z,1021.98
2018-05-23T07:26:47.516Z,1021.99
2018-05-23T07:27:56.661Z,1022.01
2018-05-23T07:29:05.529Z,1021.99
2018-05-23T07:30:14.670Z,1022.02
2018-05-23T07:31:23.942Z,1022.04
2018-05-23T07:32:33.092Z,1022.04
2018-05-23T07:33:41.956Z,1022.02
2018-05-23T07:34:50.820Z,1022.05
2018-05-23T07:35:59.682Z,1022.06
2018-05-23T07:37:08.596Z,1022.06
2018-05-23T07:38:17.535Z,1022.09
2018-05-23T07:39:26.955Z,1022.12
2018-05-23T07:40:36.095Z,1022.12
2018-05-23T07:41:44.961Z,1022.16
2018-05-23T07:42:54.463Z,1022.16
2018-05-23T07:44:03.329Z,1022.11
2018-05-23T07:45:12.191Z,1022.12
2018-05-23T07:46:21.058Z,1022.12
2018-05-23T07:47:29.923Z,1022.17
2018-05-23T07:48:38.939Z,1022.13
2018-05-23T07:49:47.802Z,1022.11
2018-05-23T07:50:56.667Z,1022.1
2018-05-23T07:52:05.532Z,1022.1
2018-05-23T07:53:14.396Z,1022.12
2018-05-23T07:54:23.411Z,1022.14
2018-05-23T07:55:32.273Z,1022.13
2018-05-23T07:56:41.507Z,1022.17
2018-05-23T07:57:50.279Z,1022.14
2018-05-23T07:58:59.143Z,1022.14
2018-05-23T08:00:09.013Z,1022.12
2018-05-23T08:01:18.156Z,1022.17
2018-05-23T08:02:27.024Z,1022.19
2018-05-23T08:03:36.163Z,1022.13
2018-05-23T08:04:45.302Z,1022.19
2018-05-23T08:05:54.466Z,1022.16
2018-05-23T08:07:03.886Z,1022.19
2018-05-23T08:08:12.750Z,1022.18
2018-05-23T08:09:21.616Z,1022.25
2018-05-23T08:10:30.478Z,1022.18
2018-05-23T08:11:39.445Z,1022.21
2018-05-23T08:12:48.625Z,1022.2
2018-05-23T08:13:57.767Z,1022.2
2018-05-23T08:15:06.635Z,1022.23
2018-05-23T08:16:15.500Z,1022.23
2018-05-23T08:17:24.819Z,1022.19
2018-05-23T08:18:33.691Z,1022.24
2018-05-23T08:19:42.560Z,1022.21
2018-05-23T08:20:51.416Z,1022.2
2018-05-23T08:22:00.280Z,1022.23
2018-05-23T08:23:09.249Z,1022.21
2018-05-23T08:24:18.390Z,1022.23
2018-05-23T08:25:27.536Z,1022.26
2018-05-23T08:26:36.399Z,1022.26
2018-05-23T08:27:45.267Z,1022.31
2018-05-23T08:28:54.284Z,1022.27
2018-05-23T08:30:03.151Z,1022.27
2018-05-23T08:31:12.858Z,1022.31
2018-05-23T08:32:21.724Z,1022.3
2018-05-23T08:33:30.878Z,1022.31
2018-05-23T08:34:39.844Z,1022.29
2018-05-23T08:35:48.708Z,1022.29
2018-05-23T08:36:58.010Z,1022.22
2018-05-23T08:38:07.156Z,1022.25
2018-05-23T08:39:16.015Z,1022.31
2018-05-23T08:40:25.033Z,1022.34
2018-05-23T08:41:33.897Z,1022.32
2018-05-23T08:42:42.761Z,1022.3
2018-05-23T08:43:51.902Z,1022.27
2018-05-23T08:45:01.050Z,1022.3
2018-05-23T08:46:10.358Z,1022.32
2018-05-23T08:47:19.133Z,1022.25
2018-05-23T08:48:27.996Z,1022.22
2018-05-23T08:49:36.857Z,1022.3
2018-05-23T08:50:45.726Z,1022.33
2018-05-23T08:51:54.692Z,1022.36
2018-05-23T08:53:03.556Z,1022.34
2018-05-23T08:54:12.980Z,1022.31
2018-05-23T08:55:22.124Z,1022.34
2018-05-23T08:56:30.988Z,1022.33
2018-05-23T08:57:39.953Z,1022.34
2018-05-23T08:58:48.817Z,1022.29
2018-05-23T08:59:57.682Z,1022.36
2018-05-23T09:01:06.549Z,1022.4
2018-05-23T09:02:15.415Z,1022.4
2018-05-23T09:03:24.337Z,1022.4
2018-05-23T09:04:33.479Z,1022.43
2018-05-23T09:05:42.939Z,1022.45
2018-05-23T09:06:51.805Z,1022.43
2018-05-23T09:08:00.681Z,1022.49
2018-05-23T09:09:09.593Z,1022.5
2018-05-23T09:10:18.736Z,1022.47
2018-05-23T09:11:27.602Z,1022.47
2018-05-23T09:12:36.661Z,1022.44
2018-05-23T09:13:45.338Z,1022.44
2018-05-23T09:14:54.255Z,1022.46
2018-05-23T09:16:03.121Z,1022.48
2018-05-23T09:17:11.989Z,1022.51
2018-05-23T09:18:20.858Z,1022.42
2018-05-23T09:19:29.723Z,1022.48
2018-05-23T09:20:39.315Z,1022.51
2018-05-23T09:21:48.459Z,1022.54
2018-05-23T09:22:57.328Z,1022.5
2018-05-23T09:24:06.195Z,1022.54
2018-05-23T09:25:15.346Z,1022.49
2018-05-23T09:26:24.411Z,1022.51
2018-05-23T09:27:33.275Z,1022.59
2018-05-23T09:28:42.144Z,1022.52
2018-05-23T09:29:51.012Z,1022.49
2018-05-23T09:30:59.877Z,1022.47
2018-05-23T09:32:09.030Z,1022.52
2018-05-23T09:33:18.625Z,1022.52
2018-05-23T09:34:27.490Z,1022.53
2018-05-23T09:35:36.356Z,1022.51
2018-05-23T09:36:45.221Z,1022.53
2018-05-23T09:37:54.136Z,1022.54
2018-05-23T09:39:03.023Z,1022.56
2018-05-23T09:40:13.236Z,1022.5
2018-05-23T09:41:22.100Z,1022.54
2018-05-23T09:42:30.969Z,1022.59
2018-05-23T09:43:39.988Z,1022.57
2018-05-23T09:44:48.854Z,1022.59
2018-05-23T09:45:57.721Z,1022.61
2018-05-23T09:47:06.867Z,1022.59
2018-05-23T09:48:15.733Z,1022.65
2018-05-23T09:49:24.753Z,1022.65
2018-05-23T09:50:33.619Z,1022.62
2018-05-23T09:51:42.489Z,1022.69
2018-05-23T09:52:51.351Z,1022.68
2018-05-23T09:54:00.500Z,1022.65
2018-05-23T09:55:09.476Z,1022.68
2018-05-23T09:56:18.285Z,1022.69
2018-05-23T09:57:27.149Z,1022.66
2018-05-23T09:58:36.020Z,1022.69
2018-05-23T09:59:45.162Z,1022.71
2018-05-23T10:00:54.129Z,1022.77
2018-05-23T10:02:02.999Z,1022.75
2018-05-23T10:03:12.419Z,1022.72
2018-05-23T10:04:21.286Z,1022.77
2018-05-23T10:05:30.154Z,1022.76
2018-05-23T10:06:39.019Z,1022.76
2018-05-23T10:07:47.885Z,1022.8
2018-05-23T10:08:57.031Z,1022.84
2018-05-23T10:10:05.897Z,1022.8
2018-05-23T10:11:14.762Z,1022.83
2018-05-23T10:12:23.779Z,1022.81
2018-05-23T10:13:32.647Z,1022.87
2018-05-23T10:14:41.519Z,1022.88
2018-05-23T10:15:50.386Z,1022.88
2018-05-23T10:16:59.255Z,1022.85
2018-05-23T10:18:08.122Z,1022.86
2018-05-23T10:19:16.988Z,1022.89
2018-05-23T10:20:25.856Z,1022.92
2018-05-23T10:21:34.725Z,1022.87
2018-05-23T10:22:43.597Z,1022.88
2018-05-23T10:23:52.711Z,1022.88
2018-05-23T10:25:02.136Z,1022.86
2018-05-23T10:26:11.006Z,1022.95
2018-05-23T10:27:20.815Z,1022.93
2018-05-23T10:28:29.680Z,1022.99
2018-05-23T10:29:38.897Z,1022.91
2018-05-23T10:30:47.763Z,1022.95
2018-05-23T10:31:56.634Z,1022.94
2018-05-23T10:33:05.506Z,1022.97
2018-05-23T10:34:14.375Z,1023
2018-05-23T10:35:23.292Z,1022.97
2018-05-23T10:36:32.163Z,1023
2018-05-23T10:37:41.308Z,1022.99
2018-05-23T10:38:50.179Z,1022.99
2018-05-23T10:39:59.048Z,1022.97
2018-05-23T10:41:08.270Z,1023.03
2018-05-23T10:42:17.142Z,1023.07
2018-05-23T10:43:26.288Z,1023.04
2018-05-23T10:44:35.164Z,1023.01
2018-05-23T10:45:44.030Z,1023.03
2018-05-23T10:46:53.329Z,1023.05
2018-05-23T10:48:02.195Z,1023.08
2018-05-23T10:49:11.062Z,1023.08
2018-05-23T10:50:20.214Z,1023.12
2018-05-23T10:51:29.642Z,1023.09
2018-05-23T10:52:38.895Z,1023.11
2018-05-23T10:53:47.766Z,1023.08
2018-05-23T10:54:56.637Z,1023.04
2018-05-23T10:56:05.505Z,1023.06
2018-05-23T10:57:14.654Z,1023.06
2018-05-23T10:58:23.871Z,1023.06
2018-05-23T10:59:33.022Z,1023.07
2018-05-23T11:00:42.445Z,1023.07
2018-05-23T11:01:51.314Z,1023.09
2018-05-23T11:03:00.193Z,1023.18
2018-05-23T11:04:09.108Z,1023.12
2018-05-23T11:05:17.979Z,1023.15
2018-05-23T11:06:27.138Z,1023.12
2018-05-23T11:07:36.006Z,1023.16
2018-05-23T11:08:45.154Z,1023.12
2018-05-23T11:09:54.881Z,1023.11
2018-05-23T11:11:04.049Z,1023.16
2018-05-23T11:12:12.921Z,1023.2
2018-05-23T11:13:21.787Z,1023.2
2018-05-23T11:14:30.652Z,1023.2
2018-05-23T11:15:39.947Z,1023.18
2018-05-23T11:16:48.815Z,1023.22
2018-05-23T11:17:57.689Z,1023.17
2018-05-23T11:19:06.836Z,1023.2
2018-05-23T11:20:15.987Z,1023.2
2018-05-23T11:21:24.952Z,1023.22
2018-05-23T11:22:33.818Z,1023.2
2018-05-23T11:23:42.689Z,1023.24
2018-05-23T11:24:51.559Z,1023.17
2018-05-23T11:26:00.704Z,1023.14
2018-05-23T11:27:09.924Z,1023.2
2018-05-23T11:28:18.795Z,1023.18
2018-05-23T11:29:27.664Z,1023.21
2018-05-23T11:30:36.809Z,1023.19
2018-05-23T11:31:45.681Z,1023.2
2018-05-23T11:32:54.604Z,1023.2
2018-05-23T11:34:03.472Z,1023.21
2018-05-23T11:35:12.343Z,1023.18
2018-05-23T11:36:21.210Z,1023.14
2018-05-23T11:37:30.078Z,1023.24
2018-05-23T11:38:38.997Z,1023.21
2018-05-23T11:39:48.152Z,1023.27
2018-05-23T11:40:57.300Z,1023.22
2018-05-23T11:42:06.169Z,1023.28
2018-05-23T11:43:15.329Z,1023.28
2018-05-23T11:44:24.828Z,1023.24
2018-05-23T11:45:33.694Z,1023.22
2018-05-23T11:46:42.622Z,1023.22
2018-05-23T11:47:51.715Z,1023.19
2018-05-23T11:49:00.865Z,1023.22
2018-05-23T11:50:09.737Z,1023.26
2018-05-23T11:51:18.602Z,1023.14
2018-05-23T11:52:27.755Z,1023.19
2018-05-23T11:53:36.622Z,1023.2
2018-05-23T11:54:45.568Z,1023.18
2018-05-23T11:55:54.364Z,1023.14
2018-05-23T11:57:03.234Z,1023.14
2018-05-23T11:58:12.107Z,1023.15
2018-05-23T11:59:20.984Z,1023.15
2018-05-23T12:00:30.184Z,1023.12
2018-05-23T12:01:39.387Z,1023.12
2018-05-23T12:02:49.150Z,1023.14
2018-05-23T12:03:58.022Z,1023.13
2018-05-23T12:05:06.890Z,1023.14
2018-05-23T12:06:15.763Z,1023.15
2018-05-23T12:07:24.698Z,1023.16
2018-05-23T12:08:33.558Z,1023.15
2018-05-23T12:09:42.428Z,1023.15
2018-05-23T12:10:51.298Z,1023.1
2018-05-23T12:12:00.171Z,1023.12
2018-05-23T12:13:09.200Z,1023.16
2018-05-23T12:14:18.066Z,1023.15
2018-05-23T12:15:26.937Z,1023.13
2018-05-23T12:16:35.810Z,1023.17
2018-05-23T12:17:44.685Z,1023.16
2018-05-23T12:18:53.889Z,1023.13
2018-05-23T12:20:02.762Z,1023.12
2018-05-23T12:21:11.916Z,1023.21
2018-05-23T12:22:20.788Z,1023.15
2018-05-23T12:23:29.663Z,1023.18
2018-05-23T12:24:38.536Z,1023.21
2018-05-23T12:25:47.408Z,1023.2
2018-05-23T12:26:56.284Z,1023.24
2018-05-23T12:28:05.443Z,1023.28
2018-05-23T12:29:14.315Z,1023.25
2018-05-23T12:30:23.539Z,1023.27
2018-05-23T12:31:32.412Z,1023.23
2018-05-23T12:32:41.566Z,1023.21
2018-05-23T12:33:50.726Z,1023.18
2018-05-23T12:34:59.878Z,1023.18
2018-05-23T12:36:09.102Z,1023.2
2018-05-23T12:37:17.979Z,1023.21
2018-05-23T12:38:26.860Z,1023.22
2018-05-23T12:39:36.013Z,1023.23
2018-05-23T12:40:44.887Z,1023.23
2018-05-23T12:41:54.112Z,1023.27
2018-05-23T12:43:02.987Z,1023.26
2018-05-23T12:44:11.866Z,1023.34
2018-05-23T12:45:20.751Z,1023.32
2018-05-23T12:46:29.626Z,1023.31
2018-05-23T12:47:38.860Z,1023.3
2018-05-23T12:48:47.739Z,1023.3
2018-05-23T12:49:56.900Z,1023.29
2018-05-23T12:51:06.068Z,1023.29
2018-05-23T12:52:14.945Z,1023.25
2018-05-23T12:53:24.125Z,1023.26
2018-05-23T12:54:33.002Z,1023.23
2018-05-23T12:55:41.970Z,1023.24
2018-05-23T12:56:50.762Z,1023.24
2018-05-23T12:57:59.928Z,1023.3
2018-05-23T12:59:08.847Z,1023.26
2018-05-23T13:00:17.725Z,1023.23
2018-05-23T13:01:26.600Z,1023.29
2018-05-23T13:02:35.755Z,1023.18
2018-05-23T13:03:45.078Z,1023.27
2018-05-23T13:04:54.058Z,1023.28
2018-05-23T13:06:02.936Z,1023.25
2018-05-23T13:07:11.815Z,1023.3
2018-05-23T13:08:20.691Z,1023.25
2018-05-23T13:09:29.571Z,1023.24
2018-05-23T13:10:38.601Z,1023.22
2018-05-23T13:11:47.477Z,1023.22
2018-05-23T13:12:56.359Z,1023.24
2018-05-23T13:14:05.231Z,1023.22
2018-05-23T13:15:14.112Z,1023.23
2018-05-23T13:16:23.039Z,1023.23
2018-05-23T13:17:32.201Z,1023.23
2018-05-23T13:18:41.082Z,1023.21
2018-05-23T13:19:49.961Z,1023.17
2018-05-23T13:20:59.119Z,1023.18
2018-05-23T13:22:08.727Z,1023.19
2018-05-23T13:23:17.607Z,1023.24
2018-05-23T13:24:26.485Z,1023.23
2018-05-23T13:25:35.363Z,1023.21
2018-05-23T13:26:44.242Z,1023.25
2018-05-23T13:27:54.232Z,1023.27
2018-05-23T13:29:03.391Z,1023.28
2018-05-23T13:30:12.270Z,1023.28
2018-05-23T13:31:21.149Z,1023.27
2018-05-23T13:32:30.032Z,1023.21
2018-05-23T13:33:39.259Z,1023.24
2018-05-23T13:34:48.139Z,1023.2
2018-05-23T13:35:57.019Z,1023.2
2018-05-23T13:37:06.201Z,1023.21
2018-05-23T13:38:15.079Z,1023.16
2018-05-23T13:39:24.164Z,1023.17
2018-05-23T13:40:33.363Z,1023.22
2018-05-23T13:41:42.211Z,1023.19
2018-05-23T13:42:51.092Z,1023.2
2018-05-23T13:43:59.969Z,1023.21
2018-05-23T13:45:08.999Z,1023.21
2018-05-23T13:46:18.000Z,1023.2
2018-05-23T13:47:26.882Z,1023.22
2018-05-23T13:48:35.758Z,1023.17
2018-05-23T13:49:44.636Z,1023.11
2018-05-23T13:50:53.515Z,1023.14
2018-05-23T13:52:02.397Z,1023.14
2018-05-23T13:53:11.275Z,1023.13
2018-05-23T13:54:20.153Z,1023.08
2018-05-23T13:55:29.110Z,1023.09
2018-05-23T13:56:37.985Z,1023.11
2018-05-23T13:57:46.877Z,1023.15